createdAt,value
2024-01-15T00:00:50.678Z,4.00
2024-01-15T00:03:35.749Z,4.30
2024-01-15T00:06:30.329Z,4.20
2024-01-15T00:09:41.580Z,3.75
2024-01-15T00:12:15.641Z,3.80
2024-01-15T00:14:48.469Z,3.78
2024-01-15T00:17:22.321Z,3.90
2024-01-15T00:19:55.160Z,3.70
2024-01-15T00:22:30.724Z,4.30
2024-01-15T00:25:04.737Z,4.28
2024-01-15T00:27:37.549Z,4.30
2024-01-15T00:30:11.149Z,3.85
2024-01-15T00:32:59.636Z,3.90
2024-01-15T00:35:40.176Z,4.18
2024-01-15T00:38:21.963Z,3.90
2024-01-15T00:40:54.635Z,3.90
2024-01-15T00:43:27.374Z,4.35
2024-01-15T00:46:07.236Z,3.50
2024-01-15T00:48:41.388Z,3.95
2024-01-15T00:54:10.150Z,4.05
2024-01-15T00:56:48.910Z,3.33
2024-01-15T00:59:22.058Z,3.42
2024-01-15T01:01:54.841Z,3.38
2024-01-15T01:04:27.684Z,3.70
2024-01-15T01:07:00.513Z,3.30
2024-01-15T01:09:34.403Z,3.80
2024-01-15T01:12:07.649Z,3.40
2024-01-15T01:14:40.456Z,3.40
2024-01-15T01:17:13.509Z,3.08
2024-01-15T01:19:46.421Z,3.22
2024-01-15T01:22:19.220Z,3.15
2024-01-15T01:25:01.420Z,3.03
2024-01-15T01:27:34.489Z,3.00
2024-01-15T01:30:10.904Z,2.60
2024-01-15T01:32:43.757Z,2.70
2024-01-15T01:38:05.384Z,2.40
2024-01-15T01:40:43.673Z,2.63
2024-01-15T01:43:16.508Z,2.60
2024-01-15T01:45:49.855Z,2.35
2024-01-15T01:48:23.504Z,2.33
2024-01-15T01:51:00.602Z,2.00
2024-01-15T01:53:54.084Z,1.90
2024-01-15T01:56:27.955Z,2.00
2024-01-15T01:59:05.555Z,2.05
2024-01-15T02:01:46.437Z,1.80
2024-01-15T02:10:57.950Z,1.67
2024-01-15T02:13:36.570Z,1.67
2024-01-15T02:16:09.258Z,2.00
2024-01-15T02:19:06.037Z,1.52
2024-01-15T02:21:38.921Z,1.55
2024-01-15T02:24:20.461Z,1.40
2024-01-15T02:26:53.361Z,1.58
2024-01-15T02:29:26.073Z,1.42
2024-01-15T02:32:13.028Z,1.38
2024-01-15T02:34:45.977Z,1.30
2024-01-15T02:37:18.888Z,1.80
2024-01-15T02:39:51.732Z,1.20
2024-01-15T02:42:24.525Z,1.30
2024-01-15T02:45:02.557Z,1.20
2024-01-15T02:47:35.348Z,1.10
2024-01-15T02:50:15.952Z,1.00
2024-01-15T02:52:48.635Z,0.90
2024-01-15T02:55:21.347Z,1.15
2024-01-15T02:57:57.021Z,1.30
2024-01-15T03:00:29.859Z,1.17
2024-01-15T03:03:02.671Z,1.08
2024-01-15T03:05:35.439Z,1.10
2024-01-15T03:08:08.308Z,0.90
2024-01-15T03:10:41.029Z,1.10
2024-01-15T03:13:13.892Z,1.00
2024-01-15T03:15:46.738Z,0.98
2024-01-15T03:18:19.619Z,1.05
2024-01-15T03:20:52.652Z,1.00
2024-01-15T03:23:25.294Z,0.90
2024-01-15T03:25:58.009Z,0.82
2024-01-15T03:28:31.663Z,0.90
2024-01-15T03:31:04.959Z,0.90
2024-01-15T03:33:41.039Z,0.80
2024-01-15T03:36:13.986Z,0.80
2024-01-15T03:38:49.022Z,0.98
2024-01-15T03:41:21.663Z,0.77
2024-01-15T03:43:54.415Z,0.75
2024-01-15T03:46:27.137Z,0.80
2024-01-15T03:49:00.122Z,0.90
2024-01-15T03:51:33.061Z,0.88
2024-01-15T03:54:05.814Z,0.80
2024-01-15T03:56:38.533Z,0.80
2024-01-15T03:59:11.284Z,0.90
2024-01-15T04:01:51.101Z,0.90
2024-01-15T04:04:23.989Z,0.70
2024-01-15T04:06:56.752Z,0.50
2024-01-15T04:09:29.526Z,0.80
2024-01-15T04:12:02.368Z,0.52
2024-01-15T04:14:35.074Z,0.85
2024-01-15T04:17:07.810Z,0.60
2024-01-15T04:19:40.603Z,0.75
2024-01-15T04:22:13.349Z,0.60
2024-01-15T04:24:46.206Z,0.50
2024-01-15T04:27:19.076Z,0.68
2024-01-15T04:29:51.872Z,0.70
2024-01-15T04:32:24.623Z,0.73
2024-01-15T04:35:02.804Z,0.50
2024-01-15T04:37:35.711Z,0.60
2024-01-15T04:40:09.614Z,0.60
2024-01-15T04:42:42.627Z,0.65
2024-01-15T04:45:17.562Z,0.70
2024-01-15T04:47:50.679Z,0.68
2024-01-15T04:50:35.455Z,0.77
2024-01-15T04:53:10.351Z,0.57
2024-01-15T04:55:45.104Z,0.52
2024-01-15T04:58:46.439Z,0.52
2024-01-15T05:01:39.917Z,0.40
2024-01-15T05:04:12.829Z,0.50
2024-01-15T05:06:45.768Z,0.50
2024-01-15T05:09:19.237Z,0.50
2024-01-15T05:11:55.558Z,0.50
2024-01-15T05:14:28.408Z,0.38
2024-01-15T05:17:12.970Z,0.50
2024-01-15T05:22:18.913Z,0.47
2024-01-15T05:24:52.915Z,0.40
2024-01-15T05:29:58.751Z,0.25
2024-01-15T05:32:31.554Z,0.52
2024-01-15T05:35:04.896Z,0.50
2024-01-15T05:37:37.639Z,0.53
2024-01-15T05:40:18.959Z,0.40
2024-01-15T05:42:51.800Z,0.30
2024-01-15T05:45:24.611Z,0.40
2024-01-15T05:47:57.835Z,0.50
2024-01-15T05:50:38.062Z,0.30
2024-01-15T05:53:10.877Z,0.40
2024-01-15T05:55:43.693Z,0.50
2024-01-15T05:58:16.473Z,0.40
2024-01-15T06:00:51.424Z,0.40
2024-01-15T06:03:24.373Z,0.30
2024-01-15T06:05:57.480Z,0.52
2024-01-15T06:08:30.340Z,0.40
2024-01-15T06:11:04.330Z,0.38
2024-01-15T06:13:37.583Z,0.30
2024-01-15T06:16:17.482Z,0.50
2024-01-15T06:18:50.377Z,0.30
2024-01-15T06:21:23.251Z,0.40
2024-01-15T06:23:57.599Z,0.25
2024-01-15T06:26:30.733Z,0.35
2024-01-15T06:29:04.137Z,0.40
2024-01-15T06:31:39.012Z,0.30
2024-01-15T06:34:26.383Z,0.50
2024-01-15T06:37:11.305Z,0.40
2024-01-15T06:39:45.096Z,0.30
2024-01-15T06:42:27.251Z,0.30
2024-01-15T06:44:59.954Z,0.38
2024-01-15T06:47:35.811Z,0.40
2024-01-15T06:50:09.203Z,0.40
2024-01-15T06:52:41.928Z,0.30
2024-01-15T06:55:14.695Z,0.30
2024-01-15T06:57:47.460Z,0.30
2024-01-15T07:00:20.801Z,0.30
2024-01-15T07:02:53.630Z,0.30
2024-01-15T07:05:26.511Z,0.25
2024-01-15T07:07:59.731Z,0.30
2024-01-15T07:10:46.732Z,0.28
2024-01-15T07:13:19.471Z,0.30
2024-01-15T07:15:52.416Z,0.38
2024-01-15T07:18:26.121Z,0.30
2024-01-15T07:20:59.851Z,0.43
2024-01-15T07:23:33.327Z,0.20
2024-01-15T07:26:10.735Z,0.35
2024-01-15T07:28:43.503Z,0.28
2024-01-15T07:31:19.628Z,0.30
2024-01-15T07:33:52.467Z,0.30
2024-01-15T07:36:25.421Z,0.30
2024-01-15T07:39:06.320Z,0.20
2024-01-15T07:41:49.737Z,0.20
2024-01-15T07:44:22.460Z,0.30
2024-01-15T07:47:02.554Z,0.40
2024-01-15T07:49:46.729Z,0.28
2024-01-15T07:52:19.628Z,0.20
2024-01-15T07:54:52.430Z,0.28
2024-01-15T07:57:25.209Z,0.28
2024-01-15T07:59:58.151Z,0.50
2024-01-15T08:02:32.743Z,0.30
2024-01-15T08:05:07.060Z,0.30
2024-01-15T08:07:39.936Z,0.30
2024-01-15T08:10:14.712Z,0.30
2024-01-15T08:12:47.462Z,0.40
2024-01-15T08:15:20.378Z,0.20
2024-01-15T08:18:01.658Z,0.38
2024-01-15T08:29:29.972Z,0.32
2024-01-15T08:32:02.876Z,0.15
2024-01-15T08:34:35.979Z,0.22
2024-01-15T08:37:08.922Z,0.20
2024-01-15T08:39:41.703Z,0.35
2024-01-15T08:42:16.002Z,0.20
2024-01-15T08:44:58.150Z,0.20
2024-01-15T08:47:31.010Z,0.28
2024-01-15T08:50:19.238Z,0.20
2024-01-15T08:52:52.067Z,0.20
2024-01-15T08:55:26.065Z,0.20
2024-01-15T08:58:03.015Z,0.17
2024-01-15T09:00:35.911Z,0.32
2024-01-15T09:03:13.617Z,0.30
2024-01-15T09:05:46.770Z,0.30
2024-01-15T09:08:19.695Z,0.13
2024-01-15T09:10:52.372Z,0.28
2024-01-15T09:13:25.151Z,0.13
2024-01-15T09:16:00.745Z,0.30
2024-01-15T09:18:33.740Z,0.20
2024-01-15T09:21:06.676Z,0.28
2024-01-15T09:23:39.529Z,0.30
2024-01-15T09:26:12.194Z,0.20
2024-01-15T09:28:44.846Z,0.30
2024-01-15T09:31:18.844Z,0.15
2024-01-15T09:36:30.310Z,0.25
2024-01-15T09:39:03.116Z,0.38
2024-01-15T09:41:39.487Z,0.43
2024-01-15T09:44:13.471Z,0.20
2024-01-15T09:46:47.967Z,0.10
2024-01-15T09:49:21.240Z,0.20
2024-01-15T09:52:03.058Z,0.20
2024-01-15T09:54:47.709Z,0.35
2024-01-15T09:57:21.476Z,0.30
2024-01-15T09:59:56.084Z,0.28
2024-01-15T10:02:38.027Z,0.15
2024-01-15T10:05:10.958Z,0.22
2024-01-15T10:07:44.738Z,0.40
2024-01-15T10:10:17.629Z,0.40
2024-01-15T10:12:50.964Z,0.28
2024-01-15T10:15:27.877Z,0.40
2024-01-15T10:18:00.832Z,0.20
2024-01-15T10:20:34.111Z,0.30
2024-01-15T10:23:06.821Z,0.40
2024-01-15T10:25:39.590Z,0.40
2024-01-15T10:28:22.665Z,0.40
2024-01-15T10:30:57.457Z,0.30
2024-01-15T10:33:33.268Z,0.57
2024-01-15T10:36:11.068Z,0.30
2024-01-15T10:38:48.071Z,0.40
2024-01-15T10:41:30.995Z,0.35
2024-01-15T10:47:05.654Z,0.32
2024-01-15T10:49:38.479Z,0.40
2024-01-15T10:52:11.697Z,0.30
2024-01-15T10:54:45.174Z,0.30
2024-01-15T10:57:19.920Z,0.60
2024-01-15T10:59:52.617Z,0.35
2024-01-15T11:02:27.106Z,0.30
2024-01-15T11:12:23.067Z,0.40
2024-01-15T11:15:05.909Z,0.32
2024-01-15T11:21:28.468Z,0.40
2024-01-15T11:24:02.879Z,0.32
2024-01-15T11:26:45.849Z,0.40
2024-01-15T11:30:04.420Z,0.30
2024-01-15T11:32:37.434Z,0.40
2024-01-15T11:35:14.785Z,0.45
2024-01-15T11:37:53.389Z,0.22
2024-01-15T11:40:35.463Z,0.30
2024-01-15T11:43:08.513Z,0.38
2024-01-15T11:45:42.564Z,0.75
2024-01-15T11:48:18.656Z,0.30
2024-01-15T11:50:52.495Z,0.40
2024-01-15T11:53:41.367Z,0.40
2024-01-15T11:56:17.989Z,0.35
2024-01-15T11:58:52.142Z,0.30
2024-01-15T12:03:59.873Z,0.43
2024-01-15T12:06:32.692Z,0.28
2024-01-15T12:09:09.141Z,0.20
2024-01-15T12:12:08.529Z,0.30
2024-01-15T12:14:41.337Z,0.30
2024-01-15T12:17:14.021Z,0.30
2024-01-15T12:19:47.178Z,0.30
2024-01-15T12:22:20.730Z,0.43
2024-01-15T12:24:53.406Z,0.25
2024-01-15T12:27:27.073Z,0.50
2024-01-15T12:30:00.197Z,0.30
2024-01-15T12:32:32.916Z,0.37
2024-01-15T12:35:06.300Z,0.10
2024-01-15T12:37:41.434Z,0.38
2024-01-15T12:40:15.828Z,0.20
2024-01-15T12:42:48.854Z,0.20
2024-01-15T12:45:21.777Z,0.30
2024-01-15T12:47:54.936Z,0.25
2024-01-15T12:50:27.862Z,0.20
2024-01-15T12:53:03.472Z,0.22
2024-01-15T12:55:36.486Z,0.30
2024-01-15T12:58:11.604Z,0.30
2024-01-15T13:00:48.420Z,0.30
2024-01-15T13:03:21.481Z,0.25
2024-01-15T13:08:58.631Z,0.38
2024-01-15T13:11:31.258Z,0.40
2024-01-15T13:14:03.848Z,0.30
2024-01-15T13:16:36.505Z,0.32
2024-01-15T13:19:12.148Z,0.30
2024-01-15T13:21:45.571Z,0.20
2024-01-15T13:24:19.049Z,0.30
2024-01-15T13:26:54.183Z,0.30
2024-01-15T13:29:26.872Z,0.20
2024-01-15T13:32:00.392Z,0.30
2024-01-15T13:37:28.936Z,0.45
2024-01-15T13:40:07.836Z,0.30
2024-01-15T13:42:40.649Z,0.40
2024-01-15T13:45:15.704Z,0.40
2024-01-15T13:47:49.724Z,0.40
2024-01-15T13:50:26.165Z,0.40
2024-01-15T13:52:59.063Z,0.28
2024-01-15T13:55:31.923Z,0.35
2024-01-15T13:58:06.782Z,0.43
2024-01-15T14:00:40.481Z,0.30
2024-01-15T14:03:13.278Z,0.40
2024-01-15T14:05:47.417Z,0.30
2024-01-15T14:10:59.471Z,0.20
2024-01-15T14:13:32.193Z,0.30
2024-01-15T14:16:25.802Z,0.30
2024-01-15T14:18:59.031Z,0.20
2024-01-15T14:21:31.731Z,0.30
2024-01-15T14:24:06.240Z,0.50
2024-01-15T14:26:39.129Z,0.45
2024-01-15T14:29:11.756Z,0.40
2024-01-15T14:31:44.568Z,0.38
2024-01-15T14:34:19.279Z,0.38
2024-01-15T14:36:55.463Z,0.50
2024-01-15T14:39:28.379Z,0.40
2024-01-15T14:42:02.734Z,0.32
2024-01-15T14:44:36.249Z,0.40
2024-01-15T14:47:09.226Z,0.40
2024-01-15T14:49:41.913Z,0.40
2024-01-15T14:52:17.274Z,0.40
2024-01-15T14:54:50.276Z,0.50
2024-01-15T14:57:23.009Z,0.50
2024-01-15T14:59:55.917Z,0.40
2024-01-15T15:02:30.923Z,0.40
2024-01-15T15:05:05.620Z,0.30
2024-01-15T15:08:27.045Z,0.50
2024-01-15T15:11:02.104Z,0.43
2024-01-15T15:16:55.867Z,0.40
2024-01-15T15:19:28.720Z,0.30
2024-01-15T15:22:01.635Z,0.30
2024-01-15T15:24:34.360Z,0.43
2024-01-15T15:27:13.367Z,0.40
2024-01-15T15:29:56.865Z,0.40
2024-01-15T15:32:29.784Z,0.40
2024-01-15T15:35:02.872Z,0.60
2024-01-15T15:37:35.774Z,0.45
2024-01-15T15:40:10.436Z,0.40
2024-01-15T15:42:43.388Z,0.38
2024-01-15T15:45:24.471Z,0.50
2024-01-15T15:47:57.731Z,0.40
2024-01-15T15:50:33.840Z,0.50
2024-01-15T15:53:07.245Z,0.60
2024-01-15T15:55:40.373Z,0.30
2024-01-15T15:58:13.134Z,0.43
2024-01-15T16:00:46.197Z,0.50
2024-01-15T16:03:19.022Z,0.47
2024-01-15T16:05:53.568Z,0.50
2024-01-15T16:08:26.970Z,0.40
2024-01-15T16:11:00.079Z,0.50
2024-01-15T16:13:32.714Z,0.40
2024-01-15T16:23:09.850Z,0.50
2024-01-15T16:23:23.330Z,0.40
2024-01-15T16:23:38.658Z,0.50
2024-01-15T16:24:51.860Z,0.63
2024-01-15T16:27:27.391Z,0.52
2024-01-15T16:30:00.679Z,0.50
2024-01-15T16:32:33.840Z,0.60
2024-01-15T16:35:08.188Z,0.57
2024-01-15T16:37:40.923Z,0.52
2024-01-15T16:40:13.959Z,0.47
2024-01-15T16:42:46.965Z,0.40
2024-01-15T16:45:19.612Z,0.40
2024-01-15T16:47:52.355Z,0.50
2024-01-15T16:50:25.125Z,0.50
2024-01-15T16:52:57.853Z,0.63
2024-01-15T16:55:30.787Z,0.70
2024-01-15T16:58:03.548Z,0.85
2024-01-15T17:00:36.224Z,0.60
2024-01-15T17:03:09.584Z,0.50
2024-01-15T17:05:42.385Z,0.60
2024-01-15T17:08:29.134Z,0.50
2024-01-15T17:11:02.730Z,0.60
2024-01-15T17:13:36.659Z,0.60
2024-01-15T17:16:11.884Z,0.50
2024-01-15T17:18:50.382Z,0.70
2024-01-15T17:31:12.023Z,0.57
2024-01-15T17:33:44.660Z,0.85
2024-01-15T17:36:21.573Z,0.70
2024-01-15T17:38:54.252Z,0.75
2024-01-15T17:41:26.871Z,0.60
2024-01-15T17:44:00.272Z,0.73
2024-01-15T17:46:32.933Z,0.90
2024-01-15T17:49:05.735Z,0.60
2024-01-15T17:51:38.395Z,0.80
2024-01-15T17:54:10.998Z,0.63
2024-01-15T17:56:43.783Z,0.60
2024-01-15T17:59:17.111Z,0.80
2024-01-15T18:01:49.821Z,0.60
2024-01-15T18:04:23.838Z,0.75
2024-01-15T18:09:29.624Z,0.80
2024-01-15T18:12:02.791Z,1.00
2024-01-15T18:14:35.924Z,1.00
2024-01-15T18:17:09.206Z,1.00
2024-01-15T18:19:43.073Z,0.80
2024-01-15T18:22:16.512Z,0.88
2024-01-15T18:24:52.763Z,0.75
2024-01-15T18:27:28.583Z,0.82
2024-01-15T18:30:56.765Z,0.90
2024-01-15T18:33:29.548Z,0.80
2024-01-15T18:36:10.223Z,0.77
2024-01-15T18:38:42.916Z,0.90
2024-01-15T18:41:29.371Z,0.70
2024-01-15T18:44:02.373Z,0.73
2024-01-15T18:46:35.034Z,1.00
2024-01-15T18:49:08.079Z,0.80
2024-01-15T18:51:41.457Z,1.02
2024-01-15T18:54:14.140Z,0.85
2024-01-15T18:56:46.737Z,0.70
2024-01-15T18:59:20.386Z,0.90
2024-01-15T19:01:53.095Z,1.67
2024-01-15T19:04:26.082Z,1.10
2024-01-15T19:06:58.744Z,0.88
2024-01-15T19:09:31.375Z,0.90
2024-01-15T19:12:05.313Z,1.20
2024-01-15T19:14:38.093Z,0.70
2024-01-15T19:17:11.074Z,1.10
2024-01-15T19:19:44.611Z,1.00
2024-01-15T19:22:17.255Z,1.02
2024-01-15T19:24:49.844Z,0.90
2024-01-15T19:27:22.600Z,0.90
2024-01-15T19:29:55.352Z,0.85
2024-01-15T19:32:28.221Z,1.02
2024-01-15T19:35:02.504Z,1.00
2024-01-15T19:37:35.446Z,0.80
2024-01-15T19:40:08.979Z,1.08
2024-01-15T19:42:42.050Z,1.13
2024-01-15T19:45:14.730Z,0.80
2024-01-15T19:47:47.561Z,0.90
2024-01-15T19:50:20.383Z,0.73
2024-01-15T19:52:53.129Z,1.10
2024-01-15T19:55:25.848Z,0.90
2024-01-15T19:57:58.588Z,1.00
2024-01-15T20:00:32.008Z,0.90
2024-01-15T20:03:04.777Z,1.02
2024-01-15T20:05:37.657Z,0.90
2024-01-15T20:08:10.539Z,0.88
2024-01-15T20:10:43.265Z,1.00
2024-01-15T20:13:15.894Z,0.80
2024-01-15T20:15:48.575Z,0.80
2024-01-15T20:18:21.481Z,0.80
2024-01-15T20:20:54.462Z,0.88
2024-01-15T20:23:27.259Z,0.90
2024-01-15T20:26:00.019Z,1.00
2024-01-15T20:28:37.792Z,0.80
2024-01-15T20:31:11.786Z,0.70
2024-01-15T20:33:50.215Z,0.63
2024-01-15T20:36:22.904Z,1.00
2024-01-15T20:38:58.475Z,0.93
2024-01-15T20:41:31.405Z,0.93
2024-01-15T20:44:04.924Z,0.60
2024-01-15T20:46:37.654Z,0.80
2024-01-15T20:49:21.933Z,0.80
2024-01-15T20:51:54.711Z,0.70
2024-01-15T20:54:27.560Z,0.60
2024-01-15T20:57:02.567Z,0.95
2024-01-15T20:59:36.734Z,0.80
2024-01-15T21:02:09.496Z,0.85
2024-01-15T21:04:43.285Z,0.63
2024-01-15T21:07:18.910Z,0.75
2024-01-15T21:09:51.590Z,0.93
2024-01-15T21:12:26.959Z,0.98
2024-01-15T21:15:03.950Z,0.80
2024-01-15T21:17:41.718Z,0.90
2024-01-15T21:20:14.645Z,0.60
2024-01-15T21:22:47.294Z,0.70
2024-01-15T21:25:21.187Z,0.90
2024-01-15T21:27:53.829Z,0.50
2024-01-15T21:30:26.496Z,0.75
2024-01-15T21:32:59.332Z,0.98
2024-01-15T21:35:32.049Z,0.45
2024-01-15T21:38:05.682Z,0.82
2024-01-15T21:40:38.351Z,0.65
2024-01-15T21:43:11.274Z,0.75
2024-01-15T21:45:43.858Z,0.57
2024-01-15T21:48:16.634Z,0.68
2024-01-15T21:50:49.493Z,0.57
2024-01-15T21:53:22.235Z,0.50
2024-01-15T21:55:55.028Z,0.52
2024-01-15T21:58:27.688Z,0.52
2024-01-15T22:01:10.298Z,0.63
2024-01-15T22:03:43.119Z,0.63
2024-01-15T22:06:21.505Z,0.50
2024-01-15T22:08:54.489Z,0.50
2024-01-15T22:11:49.737Z,0.50
2024-01-15T22:14:21.147Z,0.55
2024-01-15T22:16:55.550Z,0.68
2024-01-15T22:19:28.501Z,0.60
2024-01-15T22:22:01.215Z,0.60
2024-01-15T22:24:34.143Z,0.50
2024-01-15T22:27:08.320Z,0.40
2024-01-15T22:29:41.252Z,0.47
2024-01-15T22:32:13.989Z,0.70
2024-01-15T22:34:46.670Z,0.52
2024-01-15T22:37:19.400Z,0.60
2024-01-15T22:39:51.986Z,0.93
2024-01-15T22:42:24.638Z,0.60
2024-01-15T22:44:57.553Z,0.47
2024-01-15T22:47:30.393Z,0.50
2024-01-15T22:50:04.227Z,0.50
2024-01-15T22:52:37.595Z,0.50
2024-01-15T22:55:10.502Z,0.45
2024-01-15T22:57:43.362Z,0.40
2024-01-15T23:00:20.108Z,0.30
2024-01-15T23:02:58.164Z,0.40
2024-01-15T23:05:38.443Z,0.40
2024-01-15T23:08:11.224Z,0.50
2024-01-15T23:10:43.904Z,0.50
2024-01-15T23:13:16.724Z,0.43
2024-01-15T23:15:49.999Z,0.57
2024-01-15T23:18:22.893Z,0.30
2024-01-15T23:20:55.694Z,0.70
2024-01-15T23:23:29.248Z,0.50
2024-01-15T23:26:01.969Z,0.40
2024-01-15T23:28:34.925Z,0.35
2024-01-15T23:31:07.648Z,0.30
2024-01-15T23:33:40.403Z,0.40
2024-01-15T23:36:21.556Z,0.40
2024-01-15T23:38:54.185Z,0.30
2024-01-15T23:41:26.832Z,0.30
2024-01-15T23:43:59.442Z,0.40
2024-01-15T23:46:32.762Z,0.45
2024-01-15T23:49:05.468Z,0.40
2024-01-15T23:51:38.179Z,0.40
2024-01-15T23:54:10.792Z,0.40
2024-01-15T23:56:43.503Z,0.40
2024-01-15T23:59:16.301Z,0.60
